createdAt,value
2022-10-14T00:01:07.441Z,94459.44
2022-10-14T00:03:35.495Z,94453.59
2022-10-14T00:06:14.240Z,94462.13
2022-10-14T00:08:41.956Z,94460.22
2022-10-14T00:11:17.258Z,94460.56
2022-10-14T00:13:44.813Z,94462.47
2022-10-14T00:16:18.728Z,94465.16
2022-10-14T00:18:45.665Z,94462.00
2022-10-14T00:21:12.371Z,94459.97
2022-10-14T00:23:39.239Z,94469.28
2022-10-14T00:26:06.250Z,94468.16
2022-10-14T00:28:35.242Z,94470.06
2022-10-14T00:31:02.710Z,94469.94
2022-10-14T00:33:29.691Z,94470.38
2022-10-14T00:36:06.508Z,94480.81
2022-10-14T00:38:37.466Z,94478.44
2022-10-14T00:41:04.713Z,94472.94
2022-10-14T00:43:52.038Z,94468.81
2022-10-14T00:46:18.711Z,94471.63
2022-10-14T00:48:45.476Z,94466.25
2022-10-14T00:51:13.133Z,94470.19
2022-10-14T00:53:43.495Z,94470.19
2022-10-14T00:56:12.706Z,94468.28
2022-10-14T00:58:39.770Z,94466.59
2022-10-14T01:01:08.060Z,94471.19
2022-10-14T01:03:35.031Z,94457.63
2022-10-14T01:06:20.740Z,94461.75
2022-10-14T01:08:53.444Z,94464.75
2022-10-14T01:11:47.496Z,94462.63
2022-10-14T01:14:49.228Z,94454.56
2022-10-14T01:17:23.305Z,94461.38
2022-10-14T01:20:18.639Z,94456.66
2022-10-14T01:23:08.593Z,94454.63
2022-10-14T01:25:37.470Z,94457.00
2022-10-14T01:28:20.623Z,94454.31
2022-10-14T01:31:10.855Z,94453.72
2022-10-14T01:33:41.984Z,94463.34
2022-10-14T01:36:17.225Z,94456.09
2022-10-14T01:38:55.919Z,94460.66
2022-10-14T01:41:37.881Z,94456.75
2022-10-14T01:44:10.131Z,94455.50
2022-10-14T01:46:43.298Z,94458.63
2022-10-14T01:49:15.732Z,94450.91
2022-10-14T01:51:56.303Z,94452.47
2022-10-14T01:54:45.130Z,94440.16
2022-10-14T01:57:17.082Z,94455.16
2022-10-14T01:59:44.837Z,94443.31
2022-10-14T02:02:13.398Z,94443.78
2022-10-14T02:04:41.307Z,94444.56
2022-10-14T02:07:25.948Z,94434.59
2022-10-14T02:10:23.751Z,94441.22
2022-10-14T02:12:50.623Z,94433.47
2022-10-14T02:15:30.648Z,94437.09
2022-10-14T02:18:06.816Z,94441.22
2022-10-14T02:20:53.547Z,94436.16
2022-10-14T02:23:28.034Z,94441.41
2022-10-14T02:25:56.572Z,94443.19
2022-10-14T02:28:27.732Z,94439.47
2022-10-14T02:30:59.087Z,94437.00
2022-10-14T02:33:33.234Z,94437.63
2022-10-14T02:36:03.685Z,94434.72
2022-10-14T02:38:31.954Z,94436.63
2022-10-14T02:41:01.674Z,94430.09
2022-10-14T02:43:28.498Z,94429.78
2022-10-14T02:46:02.211Z,94430.69
2022-10-14T02:48:29.102Z,94420.88
2022-10-14T02:50:55.802Z,94419.44
2022-10-14T02:53:22.479Z,94415.31
2022-10-14T02:55:49.174Z,94414.66
2022-10-14T02:58:15.978Z,94415.78
2022-10-14T03:00:42.745Z,94407.72
2022-10-14T03:03:11.346Z,94421.94
2022-10-14T03:05:38.696Z,94409.47
2022-10-14T03:08:12.055Z,94414.53
2022-10-14T03:10:39.670Z,94403.78
2022-10-14T03:13:09.920Z,94406.00
2022-10-14T03:15:42.345Z,94405.22
2022-10-14T03:18:10.957Z,94401.75
2022-10-14T03:20:45.118Z,94404.91
2022-10-14T03:23:15.019Z,94405.22
2022-10-14T03:25:46.369Z,94408.69
2022-10-14T03:28:25.023Z,94397.81
2022-10-14T03:31:05.791Z,94399.72
2022-10-14T03:33:49.325Z,94404.44
2022-10-14T03:36:18.223Z,94398.75
2022-10-14T03:38:52.684Z,94396.84
2022-10-14T03:41:39.735Z,94387.22
2022-10-14T03:44:08.102Z,94387.53
2022-10-14T03:46:37.623Z,94391.94
2022-10-14T03:49:04.387Z,94389.56
2022-10-14T03:51:31.490Z,94384.97
2022-10-14T03:54:08.329Z,94385.44
2022-10-14T03:56:35.722Z,94387.34
2022-10-14T03:59:03.191Z,94380.53
2022-10-14T04:01:30.022Z,94377.19
2022-10-14T04:04:25.826Z,94376.03
2022-10-14T04:06:52.658Z,94373.72
2022-10-14T04:09:21.393Z,94374.59
2022-10-14T04:11:48.537Z,94367.44
2022-10-14T04:14:34.370Z,94363.19
2022-10-14T04:17:01.101Z,94372.03
2022-10-14T04:19:27.823Z,94359.38
2022-10-14T04:21:54.638Z,94366.34
2022-10-14T04:24:22.950Z,94361.63
2022-10-14T04:26:56.188Z,94359.84
2022-10-14T04:29:32.633Z,94355.25
2022-10-14T04:32:05.922Z,94355.25
2022-10-14T04:34:32.679Z,94352.56
2022-10-14T04:36:59.477Z,94353.22
2022-10-14T04:39:48.929Z,94345.19
2022-10-14T04:42:16.659Z,94349.88
2022-10-14T04:44:46.923Z,94345.31
2022-10-14T04:47:15.277Z,94346.53
2022-10-14T04:49:42.017Z,94338.03
2022-10-14T04:52:14.851Z,94336.59
2022-10-14T04:54:52.349Z,94329.44
2022-10-14T04:57:29.460Z,94335.13
2022-10-14T04:59:56.142Z,94329.75
2022-10-14T05:02:42.788Z,94325.97
2022-10-14T05:05:10.132Z,94336.03
2022-10-14T05:07:39.844Z,94333.69
2022-10-14T05:10:36.162Z,94330.22
2022-10-14T05:13:07.431Z,94330.09
2022-10-14T05:15:38.209Z,94315.75
2022-10-14T05:18:12.732Z,94331.75
2022-10-14T05:20:59.987Z,94327.38
2022-10-14T05:23:39.041Z,94326.81
2022-10-14T05:26:06.172Z,94328.38
2022-10-14T05:28:34.395Z,94323.91
2022-10-14T05:31:01.120Z,94323.47
2022-10-14T05:33:29.778Z,94323.91
2022-10-14T05:35:59.980Z,94324.34
2022-10-14T05:38:33.764Z,94325.47
2022-10-14T05:41:01.081Z,94321.22
2022-10-14T05:43:32.415Z,94318.31
2022-10-14T05:46:01.577Z,94315.97
2022-10-14T05:48:32.922Z,94311.69
2022-10-14T05:51:02.539Z,94312.50
2022-10-14T05:53:32.553Z,94300.97
2022-10-14T05:56:08.348Z,94305.34
2022-10-14T05:58:37.565Z,94292.25
2022-10-14T06:01:07.484Z,94290.34
2022-10-14T06:03:35.011Z,94296.16
2022-10-14T06:06:02.135Z,94285.88
2022-10-14T06:08:30.065Z,94291.00
2022-10-14T06:10:56.870Z,94293.69
2022-10-14T06:13:23.719Z,94284.19
2022-10-14T06:15:51.323Z,94287.00
2022-10-14T06:18:18.027Z,94286.78
2022-10-14T06:20:50.997Z,94289.59
2022-10-14T06:23:17.746Z,94295.28
2022-10-14T06:25:44.632Z,94296.16
2022-10-14T06:28:11.454Z,94298.44
2022-10-14T06:30:38.260Z,94288.81
2022-10-14T06:33:04.907Z,94289.25
2022-10-14T06:35:31.748Z,94294.38
2022-10-14T06:37:58.670Z,94284.88
2022-10-14T06:40:25.507Z,94286.44
2022-10-14T06:42:53.700Z,94289.47
2022-10-14T06:45:20.362Z,94286.31
2022-10-14T06:47:47.201Z,94292.94
2022-10-14T06:50:13.869Z,94291.69
2022-10-14T06:52:40.571Z,94298.31
2022-10-14T06:55:07.614Z,94293.97
2022-10-14T06:57:34.281Z,94303.91
2022-10-14T07:00:00.929Z,94308.19
2022-10-14T07:02:27.899Z,94305.16
2022-10-14T07:04:54.565Z,94302.91
2022-10-14T07:07:21.224Z,94300.31
2022-10-14T07:09:47.982Z,94308.63
2022-10-14T07:12:14.947Z,94304.03
2022-10-14T07:14:41.681Z,94306.72
2022-10-14T07:17:09.105Z,94307.16
2022-10-14T07:19:35.744Z,94302.69
2022-10-14T07:22:02.414Z,94301.91
2022-10-14T07:24:29.092Z,94300.00
2022-10-14T07:26:55.831Z,94301.22
2022-10-14T07:29:22.565Z,94303.13
2022-10-14T07:31:49.349Z,94310.09
2022-10-14T07:34:16.377Z,94306.50
2022-10-14T07:36:43.073Z,94308.19
2022-10-14T07:39:09.800Z,94310.94
2022-10-14T07:41:37.219Z,94310.72
2022-10-14T07:44:08.853Z,94316.22
2022-10-14T07:46:38.317Z,94312.75
2022-10-14T07:49:13.718Z,94309.38
2022-10-14T07:51:41.436Z,94314.53
2022-10-14T07:54:12.840Z,94314.28
2022-10-14T07:56:41.837Z,94318.41
2022-10-14T07:59:08.961Z,94320.88
2022-10-14T08:01:35.861Z,94311.34
2022-10-14T08:04:02.570Z,94309.28
2022-10-14T08:06:29.273Z,94315.66
2022-10-14T08:08:55.944Z,94314.88
2022-10-14T08:11:25.481Z,94314.88
2022-10-14T08:13:52.649Z,94315.66
2022-10-14T08:16:25.167Z,94317.13
2022-10-14T08:18:53.342Z,94307.16
2022-10-14T08:21:21.572Z,94308.50
2022-10-14T08:23:48.359Z,94306.78
2022-10-14T08:26:19.937Z,94304.38
2022-10-14T08:28:47.680Z,94316.38
2022-10-14T08:31:14.729Z,94307.34
2022-10-14T08:33:41.630Z,94305.06
2022-10-14T08:36:09.054Z,94304.91
2022-10-14T08:38:35.802Z,94304.94
2022-10-14T08:41:14.866Z,94300.28
2022-10-14T08:44:11.803Z,94299.25
2022-10-14T08:46:44.155Z,94295.22
2022-10-14T08:49:30.412Z,94289.88
2022-10-14T08:52:34.997Z,94294.25
2022-10-14T08:55:19.394Z,94298.59
2022-10-14T08:58:00.218Z,94304.44
2022-10-14T09:00:30.667Z,94294.09
2022-10-14T09:02:59.792Z,94296.16
2022-10-14T09:05:27.528Z,94293.56
2022-10-14T09:07:56.990Z,94297.72
2022-10-14T09:10:42.060Z,94293.56
2022-10-14T09:13:17.135Z,94286.25
2022-10-14T09:15:55.190Z,94291.13
2022-10-14T09:18:40.309Z,94293.56
2022-10-14T09:21:59.077Z,94279.19
2022-10-14T09:24:38.117Z,94287.16
2022-10-14T09:27:11.851Z,94276.38
2022-10-14T09:29:53.549Z,94286.97
2022-10-14T09:32:39.401Z,94284.09
2022-10-14T09:35:24.049Z,94286.72
2022-10-14T09:37:52.041Z,94285.25
2022-10-14T09:40:46.040Z,94282.13
2022-10-14T09:43:20.875Z,94282.53
2022-10-14T09:45:50.670Z,94276.53
2022-10-14T09:48:19.176Z,94272.19
2022-10-14T09:50:52.716Z,94278.44
2022-10-14T09:53:28.767Z,94275.38
2022-10-14T09:55:59.063Z,94271.31
2022-10-14T09:58:53.423Z,94268.97
2022-10-14T10:01:24.399Z,94258.97
2022-10-14T10:03:52.659Z,94262.88
2022-10-14T10:06:28.526Z,94263.03
2022-10-14T10:09:01.312Z,94267.28
2022-10-14T10:11:31.297Z,94264.06
2022-10-14T10:13:58.127Z,94258.59
2022-10-14T10:16:31.424Z,94258.31
2022-10-14T10:19:01.438Z,94264.50
2022-10-14T10:21:30.291Z,94260.31
2022-10-14T10:24:02.792Z,94254.94
2022-10-14T10:26:33.306Z,94257.91
2022-10-14T10:29:05.327Z,94254.84
2022-10-14T10:31:38.088Z,94253.19
2022-10-14T10:34:28.757Z,94253.84
2022-10-14T10:37:02.153Z,94247.75
2022-10-14T10:39:38.540Z,94240.28
2022-10-14T10:42:43.978Z,94231.03
2022-10-14T10:45:36.965Z,94234.28
2022-10-14T10:48:15.585Z,94225.75
2022-10-14T10:50:56.141Z,94232.44
2022-10-14T10:53:30.277Z,94225.81
2022-10-14T10:56:07.857Z,94215.78
2022-10-14T10:58:42.260Z,94220.06
2022-10-14T11:01:18.256Z,94215.78
2022-10-14T11:03:56.676Z,94217.78
2022-10-14T11:07:04.976Z,94206.97
2022-10-14T11:10:30.139Z,94207.94
2022-10-14T11:13:05.556Z,94204.03
2022-10-14T11:15:47.191Z,94195.50
2022-10-14T11:18:33.017Z,94197.13
2022-10-14T11:21:05.703Z,94194.91
2022-10-14T11:23:35.338Z,94191.19
2022-10-14T11:26:04.980Z,94189.19
2022-10-14T11:28:51.826Z,94178.81
2022-10-14T11:31:26.740Z,94175.09
2022-10-14T11:34:02.614Z,94177.22
2022-10-14T11:36:41.390Z,94178.50
2022-10-14T11:39:15.090Z,94172.59
2022-10-14T11:41:51.033Z,94173.81
2022-10-14T11:44:17.618Z,94177.97
2022-10-14T11:46:49.294Z,94163.38
2022-10-14T11:49:25.194Z,94161.56
2022-10-14T11:51:58.116Z,94160.78
2022-10-14T11:54:28.767Z,94157.59
2022-10-14T11:57:07.446Z,94159.16
2022-10-14T11:59:37.787Z,94155.25
2022-10-14T12:02:15.107Z,94163.31
2022-10-14T12:04:43.801Z,94162.94
2022-10-14T12:07:14.165Z,94157.75
2022-10-14T12:09:47.709Z,94150.19
2022-10-14T12:12:17.486Z,94156.06
2022-10-14T12:15:10.378Z,94149.75
2022-10-14T12:17:43.138Z,94149.09
2022-10-14T12:20:21.913Z,94140.78
2022-10-14T12:22:49.365Z,94138.41
2022-10-14T12:25:18.542Z,94135.59
2022-10-14T12:27:45.286Z,94144.28
2022-10-14T12:30:30.619Z,94137.66
2022-10-14T12:33:08.859Z,94139.91
2022-10-14T12:35:52.879Z,94145.25
2022-10-14T12:38:20.756Z,94136.72
2022-10-14T12:40:50.761Z,94130.56
2022-10-14T12:43:19.184Z,94130.97
2022-10-14T12:46:08.764Z,94132.47
2022-10-14T12:48:36.354Z,94130.13
2022-10-14T12:51:08.692Z,94123.88
2022-10-14T12:53:35.695Z,94121.38
2022-10-14T12:56:04.295Z,94121.09
2022-10-14T12:58:55.153Z,94117.41
2022-10-14T13:01:21.888Z,94117.22
2022-10-14T13:03:56.392Z,94118.81
2022-10-14T13:06:29.281Z,94115.78
2022-10-14T13:09:17.247Z,94109.59
2022-10-14T13:11:43.788Z,94107.88
2022-10-14T13:14:21.854Z,94102.63
2022-10-14T13:16:51.491Z,94097.06
2022-10-14T13:19:33.318Z,94097.72
2022-10-14T13:22:22.919Z,94092.94
2022-10-14T13:24:49.812Z,94094.16
2022-10-14T13:27:32.924Z,94094.94
2022-10-14T13:30:29.267Z,94092.50
2022-10-14T13:33:03.785Z,94088.34
2022-10-14T13:35:50.708Z,94084.03
2022-10-14T13:38:21.816Z,94080.56
2022-10-14T13:40:50.465Z,94089.81
2022-10-14T13:43:32.345Z,94087.47
2022-10-14T13:46:12.809Z,94087.88
2022-10-14T13:48:41.182Z,94092.19
2022-10-14T13:51:35.142Z,94086.84
2022-10-14T13:54:15.696Z,94088.41
2022-10-14T13:56:42.546Z,94086.75
2022-10-14T13:59:43.410Z,94093.16
2022-10-14T14:02:19.223Z,94096.09
2022-10-14T14:04:51.747Z,94095.63
2022-10-14T14:07:47.707Z,94099.31
2022-10-14T14:10:09.917Z,94095.47
2022-10-14T14:12:36.687Z,94096.34
2022-10-14T14:15:04.165Z,94088.75
2022-10-14T14:17:33.348Z,94087.69
2022-10-14T14:19:59.915Z,94085.78
2022-10-14T14:22:30.786Z,94085.06
2022-10-14T14:25:43.032Z,94077.09
2022-10-14T14:28:15.194Z,94080.22
2022-10-14T14:30:50.640Z,94076.38
2022-10-14T14:33:39.073Z,94072.91
2022-10-14T14:36:14.677Z,94064.09
2022-10-14T14:38:53.706Z,94059.03
2022-10-14T14:41:24.708Z,94058.97
2022-10-14T14:44:13.587Z,94065.06
2022-10-14T14:46:42.298Z,94058.84
2022-10-14T14:49:13.082Z,94049.09
2022-10-14T14:51:40.593Z,94044.78
2022-10-14T14:54:07.666Z,94051.31
2022-10-14T14:56:43.037Z,94044.75
2022-10-14T14:59:18.765Z,94033.22
2022-10-14T15:01:45.557Z,94039.75
2022-10-14T15:04:20.307Z,94036.22
2022-10-14T15:06:59.080Z,94034.97
2022-10-14T15:09:37.833Z,94033.31
2022-10-14T15:12:06.066Z,94032.84
2022-10-14T15:14:41.663Z,94031.66
2022-10-14T15:17:28.653Z,94032.06
2022-10-14T15:20:00.462Z,94027.03
2022-10-14T15:22:32.168Z,94032.06
2022-10-14T15:25:02.805Z,94035.19
2022-10-14T15:27:49.661Z,94030.56
2022-10-14T15:30:20.492Z,94031.75
2022-10-14T15:32:47.581Z,94032.06
2022-10-14T15:35:18.418Z,94037.44
2022-10-14T15:37:45.293Z,94032.44
2022-10-14T15:40:12.086Z,94018.88
2022-10-14T15:42:38.707Z,94028.84
2022-10-14T15:45:05.598Z,94038.78
2022-10-14T15:47:32.541Z,94028.28
2022-10-14T15:49:59.234Z,94025.94
2022-10-14T15:52:27.060Z,94028.19
2022-10-14T15:54:53.875Z,94035.41
2022-10-14T15:57:21.451Z,94036.91
2022-10-14T15:59:49.737Z,94033.78
2022-10-14T16:02:24.176Z,94029.09
2022-10-14T16:05:18.383Z,94034.38
2022-10-14T16:07:38.628Z,94025.44
2022-10-14T16:10:06.190Z,94022.69
2022-10-14T16:12:33.012Z,94014.53
2022-10-14T16:15:02.014Z,94017.94
2022-10-14T16:17:28.670Z,94015.94
2022-10-14T16:19:55.320Z,94020.13
2022-10-14T16:22:21.930Z,94021.69
2022-10-14T16:24:48.493Z,94030.91
2022-10-14T16:27:15.053Z,94022.78
2022-10-14T16:29:41.604Z,94022.34
2022-10-14T16:32:09.684Z,94023.13
2022-10-14T16:34:36.230Z,94024.63
2022-10-14T16:37:02.870Z,94028.47
2022-10-14T16:39:29.404Z,94014.56
2022-10-14T16:41:56.366Z,94029.16
2022-10-14T16:44:27.589Z,94028.75
2022-10-14T16:47:13.754Z,94033.34
2022-10-14T16:49:40.710Z,94030.66
2022-10-14T16:52:08.099Z,94035.97
2022-10-14T16:54:34.718Z,94038.66
2022-10-14T16:57:01.411Z,94033.97
2022-10-14T16:59:31.426Z,94031.28
2022-10-14T17:01:58.224Z,94037.09
2022-10-14T17:04:25.166Z,94031.72
2022-10-14T17:06:57.441Z,94030.94
2022-10-14T17:11:54.813Z,94033.63
2022-10-14T17:14:24.371Z,94035.13
2022-10-14T17:16:52.636Z,94022.00
2022-10-14T17:19:19.817Z,94023.19
2022-10-14T17:21:47.334Z,94032.41
2022-10-14T17:24:15.178Z,94032.78
2022-10-14T17:26:41.772Z,94029.69
2022-10-14T17:29:08.389Z,94037.38
2022-10-14T17:31:37.828Z,94036.19
2022-10-14T17:34:08.387Z,94040.03
2022-10-14T17:36:35.061Z,94034.22
2022-10-14T17:39:01.847Z,94039.97
2022-10-14T17:41:29.220Z,94032.22
2022-10-14T17:43:56.788Z,94024.50
2022-10-14T17:46:25.003Z,94023.28
2022-10-14T17:48:56.333Z,94030.22
2022-10-14T17:51:25.196Z,94024.06
2022-10-14T17:53:56.977Z,94022.50
2022-10-14T17:56:24.062Z,94015.13
2022-10-14T17:58:54.470Z,94029.28
2022-10-14T18:01:36.722Z,94023.13
2022-10-14T18:04:08.346Z,94021.56
2022-10-14T18:06:35.414Z,94026.94
2022-10-14T18:09:03.950Z,94029.28
2022-10-14T18:11:56.181Z,94028.94
2022-10-14T18:14:19.331Z,94019.66
2022-10-14T18:16:47.646Z,94005.78
2022-10-14T18:19:16.730Z,94006.91
2022-10-14T18:21:44.515Z,94013.13
2022-10-14T18:24:11.542Z,94010.44
2022-10-14T18:26:40.594Z,94012.34
2022-10-14T18:29:07.725Z,94006.19
2022-10-14T18:31:34.404Z,94004.63
2022-10-14T18:34:01.680Z,93994.22
2022-10-14T18:36:29.530Z,93993.00
2022-10-14T18:38:57.289Z,93991.44
2022-10-14T18:41:24.798Z,93990.22
2022-10-14T18:43:51.855Z,93985.16
2022-10-14T18:46:20.030Z,93995.16
2022-10-14T18:48:48.372Z,93991.69
2022-10-14T18:51:15.831Z,93990.13
2022-10-14T18:53:45.033Z,93991.25
2022-10-14T18:56:15.973Z,93987.72
2022-10-14T18:58:43.203Z,93985.72
2022-10-14T19:01:11.238Z,93986.81
2022-10-14T19:03:41.601Z,93980.13
2022-10-14T19:06:09.136Z,93982.38
2022-10-14T19:08:37.400Z,93987.44
2022-10-14T19:11:04.869Z,93982.38
2022-10-14T19:13:31.831Z,93980.91
2022-10-14T19:16:01.484Z,93988.56
2022-10-14T19:18:28.166Z,93975.78
2022-10-14T19:20:57.291Z,93975.28
2022-10-14T19:23:24.857Z,93975.19
2022-10-14T19:25:51.408Z,93972.16
2022-10-14T19:28:18.280Z,93969.81
2022-10-14T19:30:45.107Z,93953.97
2022-10-14T19:33:11.688Z,93963.16
2022-10-14T19:35:38.448Z,93958.91
2022-10-14T19:38:04.937Z,93955.00
2022-10-14T19:40:31.456Z,93956.06
2022-10-14T19:42:58.003Z,93954.84
2022-10-14T19:45:24.543Z,93936.78
2022-10-14T19:47:51.540Z,93940.25
2022-10-14T19:50:18.061Z,93938.69
2022-10-14T19:52:44.623Z,93941.47
2022-10-14T19:55:11.221Z,93936.50
2022-10-14T19:57:37.766Z,93931.81
2022-10-14T20:00:04.492Z,93932.97
2022-10-14T20:02:31.261Z,93922.88
2022-10-14T20:04:57.813Z,93919.84
2022-10-14T20:07:24.789Z,93927.16
2022-10-14T20:09:51.975Z,93921.69
2022-10-14T20:12:18.685Z,93914.72
2022-10-14T20:14:46.664Z,93915.91
2022-10-14T20:17:13.534Z,93908.88
2022-10-14T20:19:40.297Z,93907.66
2022-10-14T20:22:07.356Z,93902.28
2022-10-14T20:24:34.201Z,93906.09
2022-10-14T20:27:01.029Z,93900.28
2022-10-14T20:29:27.713Z,93900.28
2022-10-14T20:31:54.368Z,93901.06
2022-10-14T20:34:21.121Z,93893.41
2022-10-14T20:36:47.684Z,93889.88
2022-10-14T20:39:14.704Z,93889.78
2022-10-14T20:41:42.361Z,93883.19
2022-10-14T20:44:08.922Z,93882.06
2022-10-14T20:46:35.721Z,93880.50
2022-10-14T20:49:02.659Z,93879.72
2022-10-14T20:51:29.239Z,93874.34
2022-10-14T20:54:01.673Z,93880.50
2022-10-14T20:56:32.622Z,93867.47
2022-10-14T20:59:00.837Z,93863.59
2022-10-14T21:01:28.783Z,93860.09
2022-10-14T21:03:55.637Z,93862.78
2022-10-14T21:06:23.614Z,93861.31
2022-10-14T21:08:51.260Z,93856.72
2022-10-14T21:11:20.585Z,93852.53
2022-10-14T21:13:48.528Z,93844.47
2022-10-14T21:16:24.445Z,93851.34
2022-10-14T21:18:55.256Z,93842.13
2022-10-14T21:21:25.389Z,93849.84
2022-10-14T21:23:53.013Z,93843.69
2022-10-14T21:26:19.801Z,93838.75
2022-10-14T21:28:46.652Z,93843.00
2022-10-14T21:31:16.116Z,93829.97
2022-10-14T21:33:45.496Z,93833.88
2022-10-14T21:36:13.339Z,93825.44
2022-10-14T21:38:40.958Z,93823.53
2022-10-14T21:41:08.476Z,93825.16
2022-10-14T21:43:36.132Z,93817.00
2022-10-14T21:46:04.031Z,93815.53
2022-10-14T21:48:30.605Z,93809.00
2022-10-14T21:51:06.288Z,93806.31
2022-10-14T21:53:33.490Z,93804.75
2022-10-14T21:56:00.479Z,93804.03
2022-10-14T21:58:27.780Z,93801.34
2022-10-14T22:01:04.906Z,93798.63
2022-10-14T22:03:31.874Z,93797.94
2022-10-14T22:05:59.232Z,93797.94
2022-10-14T22:08:29.177Z,93792.19
2022-10-14T22:10:56.053Z,93794.09
2022-10-14T22:13:22.776Z,93793.69
2022-10-14T22:15:49.606Z,93787.09
2022-10-14T22:18:16.352Z,93789.00
2022-10-14T22:20:43.010Z,93785.19
2022-10-14T22:23:09.614Z,93781.72
2022-10-14T22:25:36.196Z,93778.66
2022-10-14T22:28:03.427Z,93777.53
2022-10-14T22:30:30.236Z,93774.06
2022-10-14T22:32:56.923Z,93764.06
2022-10-14T22:35:24.164Z,93764.84
2022-10-14T22:37:50.886Z,93764.84
2022-10-14T22:40:18.181Z,93759.47
2022-10-14T22:42:49.039Z,93760.25
2022-10-14T22:45:17.883Z,93756.78
2022-10-14T22:47:44.828Z,93755.56
2022-10-14T22:50:11.570Z,93753.22
2022-10-14T22:52:38.404Z,93756.31
2022-10-14T22:55:05.334Z,93750.94
2022-10-14T22:57:32.100Z,93747.09
2022-10-14T22:59:59.001Z,93744.41
2022-10-14T23:02:26.310Z,93745.53
2022-10-14T23:04:53.178Z,93742.47
2022-10-14T23:07:20.301Z,93740.19
2022-10-14T23:09:47.022Z,93744.81
2022-10-14T23:12:13.609Z,93737.16
2022-10-14T23:14:40.166Z,93733.34
2022-10-14T23:17:06.754Z,93726.38
2022-10-14T23:19:33.382Z,93730.22
2022-10-14T23:21:59.992Z,93737.50
2022-10-14T23:24:26.930Z,93726.38
2022-10-14T23:26:53.562Z,93723.28
2022-10-14T23:29:20.172Z,93725.69
2022-10-14T23:31:46.757Z,93717.19
2022-10-14T23:34:13.662Z,93713.34
2022-10-14T23:36:40.791Z,93709.88
2022-10-14T23:39:07.409Z,93712.56
2022-10-14T23:41:34.128Z,93708.75
2022-10-14T23:44:00.715Z,93712.22
2022-10-14T23:46:27.278Z,93703.38
2022-10-14T23:49:06.871Z,93710.31
2022-10-14T23:51:34.762Z,93703.00
2022-10-14T23:54:01.406Z,93698.75
2022-10-14T23:56:27.969Z,93705.69
2022-10-14T23:58:54.570Z,93700.31
